createdAt,value
2023-02-05T00:34:57.034Z,36.10
2023-02-05T00:38:33.060Z,36.10
2023-02-05T00:42:03.106Z,36.00
2023-02-05T00:45:33.381Z,36.10
2023-02-05T00:49:03.139Z,36.10
2023-02-05T00:52:27.176Z,36.00
2023-02-05T00:56:03.194Z,36.00
2023-02-05T00:59:27.221Z,36.00
2023-02-05T01:02:51.335Z,36.00
2023-02-05T01:06:21.288Z,36.00
2023-02-05T01:09:45.304Z,36.00
2023-02-05T01:13:21.333Z,36.60
2023-02-05T01:16:45.369Z,36.00
2023-02-05T01:20:09.386Z,36.00
2023-02-05T01:23:33.418Z,36.00
2023-02-05T01:27:03.448Z,36.00
2023-02-05T01:30:39.642Z,36.00
2023-02-05T01:34:09.526Z,36.00
2023-02-05T01:37:33.553Z,36.10
2023-02-05T01:40:57.575Z,36.10
2023-02-05T01:44:33.602Z,36.10
2023-02-05T01:48:03.628Z,36.10
2023-02-05T01:51:27.657Z,36.10
2023-02-05T01:54:57.684Z,36.10
2023-02-05T01:58:09.717Z,36.10
2023-02-05T02:01:15.829Z,36.10
2023-02-05T02:04:39.758Z,36.10
2023-02-05T02:07:45.790Z,36.10
2023-02-05T02:10:51.039Z,36.00
2023-02-05T02:13:59.372Z,36.00
2023-02-05T02:17:09.860Z,36.00
2023-02-05T02:20:29.443Z,36.00
2023-02-05T02:23:45.922Z,36.00
2023-02-05T02:27:11.522Z,36.00
2023-02-05T02:30:27.247Z,36.00
2023-02-05T02:33:35.575Z,36.00
2023-02-05T02:36:53.604Z,36.00
2023-02-05T02:40:05.640Z,36.00
2023-02-05T02:43:27.356Z,36.00
2023-02-05T02:46:47.720Z,36.00
2023-02-05T02:50:05.722Z,36.00
2023-02-05T02:53:11.754Z,36.00
2023-02-05T02:56:21.476Z,36.00
2023-02-05T02:59:27.507Z,36.00
2023-02-05T03:02:40.251Z,36.00
2023-02-05T03:05:46.278Z,36.00
2023-02-05T03:08:59.894Z,36.00
2023-02-05T03:12:09.629Z,36.00
2023-02-05T03:15:15.668Z,36.00
2023-02-05T03:18:35.997Z,36.00
2023-02-05T03:21:46.417Z,36.00
2023-02-05T03:24:58.448Z,36.00
2023-02-05T03:28:04.508Z,36.00
2023-02-05T03:31:21.841Z,36.00
2023-02-05T03:34:57.829Z,35.90
2023-02-05T03:38:12.176Z,36.00
2023-02-05T03:41:21.882Z,35.90
2023-02-05T03:44:34.604Z,36.00
2023-02-05T03:47:52.660Z,35.90
2023-02-05T03:51:12.310Z,35.90
2023-02-05T03:54:21.993Z,35.90
2023-02-05T03:57:28.714Z,36.00
2023-02-05T04:00:36.397Z,36.00
2023-02-05T04:03:46.075Z,35.90
2023-02-05T04:07:22.796Z,35.90
2023-02-05T04:10:46.814Z,35.90
2023-02-05T04:14:16.178Z,35.90
2023-02-05T04:17:40.869Z,35.90
2023-02-05T04:21:16.897Z,35.90
2023-02-05T04:24:52.926Z,35.90
2023-02-05T04:28:22.957Z,35.90
2023-02-05T04:32:34.995Z,35.90
2023-02-05T04:35:58.388Z,35.90
2023-02-05T04:39:28.425Z,35.90
2023-02-05T04:43:04.455Z,35.90
2023-02-05T04:46:28.487Z,35.90
2023-02-05T04:49:52.521Z,35.90
2023-02-05T04:53:17.585Z,35.90
2023-02-05T05:00:23.653Z,35.90
2023-02-05T05:03:47.692Z,36.00
2023-02-05T05:07:11.725Z,35.90
2023-02-05T05:10:40.702Z,35.90
2023-02-05T05:14:04.735Z,35.90
2023-02-05T05:17:46.767Z,36.00
2023-02-05T05:21:16.802Z,35.90
2023-02-05T05:24:34.838Z,35.90
2023-02-05T05:28:04.866Z,35.90
2023-02-05T05:31:34.904Z,35.90
2023-02-05T05:35:18.830Z,35.90
2023-02-05T05:38:30.073Z,35.90
2023-02-05T05:41:48.104Z,35.90
2023-02-05T05:45:01.676Z,36.00
2023-02-05T05:48:06.164Z,36.00
2023-02-05T05:51:24.206Z,36.00
2023-02-05T05:54:25.765Z,35.90
2023-02-05T05:57:48.258Z,35.90
2023-02-05T06:01:12.287Z,35.90
2023-02-05T06:04:36.471Z,35.90
2023-02-05T06:08:06.358Z,35.90
2023-02-05T06:11:36.411Z,35.90
2023-02-05T06:15:06.431Z,35.90
2023-02-05T06:18:36.467Z,35.80
2023-02-05T06:22:06.513Z,35.80
2023-02-05T06:25:42.562Z,35.90
2023-02-05T06:29:12.581Z,35.80
2023-02-05T06:32:26.749Z,35.90
2023-02-05T06:35:36.881Z,35.80
2023-02-05T06:38:42.676Z,35.90
2023-02-05T06:41:54.705Z,35.80
2023-02-05T06:45:06.747Z,35.80
2023-02-05T06:48:18.775Z,35.90
2023-02-05T06:51:24.791Z,35.90
2023-02-05T06:54:30.825Z,35.90
2023-02-05T06:57:44.332Z,35.90
2023-02-05T07:00:48.887Z,35.90
2023-02-05T07:03:54.917Z,35.90
2023-02-05T07:07:00.955Z,35.80
2023-02-05T07:10:08.446Z,35.80
2023-02-05T07:13:19.017Z,35.80
2023-02-05T07:16:26.495Z,35.90
2023-02-05T07:19:37.092Z,35.80
2023-02-05T07:22:44.534Z,35.80
2023-02-05T07:25:49.156Z,35.80
2023-02-05T07:28:56.590Z,35.80
2023-02-05T07:32:01.244Z,35.80
2023-02-05T07:35:14.639Z,35.80
2023-02-05T07:38:19.288Z,35.80
2023-02-05T07:41:31.308Z,35.80
2023-02-05T07:44:37.335Z,35.80
2023-02-05T07:47:44.735Z,35.80
2023-02-05T07:50:49.389Z,35.80
2023-02-05T07:54:02.801Z,35.80
2023-02-05T07:57:07.443Z,35.80
2023-02-05T08:00:20.834Z,35.80
2023-02-05T08:03:24.169Z,35.80
2023-02-05T08:06:30.199Z,35.80
2023-02-05T08:09:37.581Z,35.80
2023-02-05T08:12:43.604Z,35.80
2023-02-05T08:15:55.638Z,35.80
2023-02-05T08:19:01.669Z,35.80
2023-02-05T08:22:07.701Z,35.80
2023-02-05T08:25:21.036Z,35.80
2023-02-05T08:28:25.769Z,35.80
2023-02-05T08:31:45.136Z,35.80
2023-02-05T08:34:49.832Z,35.80
2023-02-05T08:38:15.137Z,35.80
2023-02-05T08:41:42.510Z,35.70
2023-02-05T08:45:18.552Z,35.70
2023-02-05T08:48:54.584Z,35.70
2023-02-05T08:52:30.614Z,35.70
2023-02-05T08:56:00.659Z,35.70
2023-02-05T08:59:36.683Z,35.70
2023-02-05T09:03:06.736Z,35.70
2023-02-05T09:06:51.379Z,35.70
2023-02-05T09:10:00.774Z,35.60
2023-02-05T09:13:09.442Z,35.60
2023-02-05T09:16:12.829Z,35.60
2023-02-05T09:19:23.032Z,35.60
2023-02-05T09:22:33.528Z,35.60
2023-02-05T09:25:40.233Z,35.50
2023-02-05T09:28:45.588Z,35.60
2023-02-05T09:31:51.665Z,35.60
2023-02-05T09:35:03.644Z,35.60
2023-02-05T09:38:34.348Z,35.60
2023-02-05T09:42:01.093Z,35.50
2023-02-05T09:45:46.458Z,35.60
2023-02-05T09:49:22.458Z,35.50
2023-02-05T09:52:58.498Z,35.50
2023-02-05T09:56:36.476Z,35.50
2023-02-05T10:00:10.576Z,35.50
2023-02-05T10:03:46.602Z,35.50
2023-02-05T10:07:34.640Z,36.20
2023-02-05T10:11:16.679Z,35.60
2023-02-05T10:15:16.713Z,35.50
2023-02-05T10:18:50.603Z,35.60
2023-02-05T10:22:40.781Z,35.60
2023-02-05T10:26:22.808Z,35.60
2023-02-05T10:30:07.536Z,35.60
2023-02-05T11:13:59.224Z,35.50
2023-02-05T12:37:48.005Z,35.40
2023-02-05T12:41:20.952Z,35.40
2023-02-05T12:44:54.070Z,35.40
2023-02-05T12:48:30.101Z,35.50
2023-02-05T12:52:12.135Z,35.40
2023-02-05T12:55:48.164Z,35.40
2023-02-05T12:59:18.194Z,35.40
2023-02-05T13:03:00.230Z,35.40
2023-02-05T13:06:30.259Z,35.40
2023-02-05T13:59:27.084Z,35.40
2023-02-05T14:03:09.139Z,35.40
2023-02-05T14:18:21.262Z,35.50
2023-02-05T14:22:33.308Z,35.50
2023-02-05T14:26:27.341Z,35.40
2023-02-05T14:34:21.785Z,35.50
2023-02-05T14:41:57.477Z,35.50
2023-02-05T14:45:15.512Z,35.50
2023-02-05T14:48:21.534Z,35.40
2023-02-05T14:51:39.559Z,35.40
2023-02-05T14:55:15.294Z,35.40
2023-02-05T14:58:45.616Z,35.40
2023-02-05T15:02:15.656Z,35.40
2023-02-05T15:05:27.678Z,35.40
2023-02-05T15:08:57.397Z,35.90
2023-02-05T15:12:21.437Z,35.40
2023-02-05T15:16:09.811Z,35.40
2023-02-05T15:19:21.797Z,35.40
2023-02-05T15:22:57.528Z,35.50
2023-02-05T15:26:15.860Z,35.40
2023-02-05T15:29:45.888Z,35.40
2023-02-05T15:33:15.935Z,35.40
2023-02-05T15:36:27.950Z,35.40
2023-02-05T15:39:51.976Z,35.40
2023-02-05T15:43:09.697Z,35.40
2023-02-05T15:46:22.042Z,35.50
2023-02-05T15:49:39.751Z,35.50
2023-02-05T15:52:58.094Z,35.40
2023-02-05T15:56:27.815Z,35.40
2023-02-05T15:59:46.152Z,35.40
2023-02-05T16:03:15.877Z,35.40
2023-02-05T16:06:46.217Z,35.40
2023-02-05T16:10:03.932Z,35.40
2023-02-05T16:13:34.275Z,35.40
2023-02-05T16:16:57.999Z,35.40
2023-02-05T16:20:16.339Z,35.40
2023-02-05T16:23:46.363Z,35.50
2023-02-05T16:27:04.389Z,35.40
2023-02-05T16:30:16.417Z,35.50
2023-02-05T16:33:28.445Z,35.40
2023-02-05T16:36:46.163Z,35.40
2023-02-05T16:40:41.120Z,35.40
2023-02-05T16:48:05.187Z,35.40
2023-02-05T16:51:29.216Z,35.40
2023-02-05T16:55:11.250Z,35.40
2023-02-05T16:58:53.280Z,35.40
2023-02-05T17:02:23.332Z,35.40
2023-02-05T17:06:05.350Z,35.40
2023-02-05T17:09:23.379Z,35.40
2023-02-05T17:12:47.415Z,35.40
2023-02-05T17:16:08.635Z,35.40
2023-02-05T17:19:22.615Z,35.40
2023-02-05T17:22:47.517Z,35.40
2023-02-05T17:25:53.544Z,35.40
2023-02-05T17:28:59.569Z,35.40
2023-02-05T17:32:11.601Z,35.40
2023-02-05T17:35:17.631Z,35.40
2023-02-05T17:38:24.869Z,35.40
2023-02-05T17:41:48.901Z,35.50
2023-02-05T17:45:06.927Z,35.50
2023-02-05T17:48:24.957Z,35.60
2023-02-05T17:51:35.810Z,35.60
2023-02-05T17:54:59.843Z,35.60
2023-02-05T17:58:29.878Z,35.60
2023-02-05T18:01:59.947Z,35.70
2023-02-05T18:05:41.955Z,35.60
2023-02-05T18:09:11.988Z,35.70
2023-02-05T18:12:42.024Z,35.70
2023-02-05T18:16:18.108Z,35.70
2023-02-05T18:19:48.101Z,35.70
2023-02-05T18:23:28.718Z,35.70
2023-02-05T18:26:37.329Z,35.60
2023-02-05T18:30:06.190Z,35.70
2023-02-05T18:33:36.223Z,35.70
2023-02-05T18:37:06.256Z,35.70
2023-02-05T18:40:48.289Z,35.60
2023-02-05T18:58:13.601Z,35.50
2023-02-05T19:01:49.622Z,35.50
2023-02-05T19:05:19.652Z,35.50
2023-02-05T19:08:55.691Z,35.50
2023-02-05T19:12:25.739Z,35.50
2023-02-05T19:15:40.249Z,35.50
2023-02-05T19:19:13.837Z,35.50
2023-02-05T19:22:49.835Z,35.50
2023-02-05T19:26:19.870Z,35.50
2023-02-05T19:29:55.902Z,35.50
2023-02-05T19:33:25.930Z,35.50
2023-02-05T19:37:09.023Z,35.50
2023-02-05T19:40:38.127Z,35.40
2023-02-05T19:44:14.039Z,35.50
2023-02-05T19:47:26.068Z,35.40
2023-02-05T19:51:02.093Z,35.40
2023-02-05T19:54:46.565Z,35.40
2023-02-05T19:58:14.155Z,35.40
2023-02-05T20:01:44.211Z,35.40
2023-02-05T20:05:20.265Z,35.40
2023-02-05T20:08:50.247Z,35.40
2023-02-05T20:12:32.288Z,35.40
2023-02-05T20:15:56.372Z,35.40
2023-02-05T20:19:20.360Z,35.40
2023-02-05T20:22:50.395Z,35.40
2023-02-05T20:26:14.428Z,35.40
2023-02-05T20:29:52.885Z,35.40
2023-02-05T20:33:20.496Z,35.30
2023-02-05T20:36:46.977Z,35.40
2023-02-05T20:40:14.563Z,35.30
2023-02-05T20:43:44.594Z,35.30
2023-02-05T20:47:26.629Z,35.30
2023-02-05T20:50:53.058Z,35.30
2023-02-05T20:53:59.096Z,35.30
2023-02-05T20:57:04.195Z,35.30
2023-02-05T21:00:09.764Z,35.20
2023-02-05T21:03:28.248Z,35.30
2023-02-05T21:06:39.784Z,35.20
2023-02-05T21:09:45.807Z,35.20
2023-02-05T21:13:15.837Z,35.30
2023-02-05T21:16:51.879Z,35.30
2023-02-05T21:20:21.902Z,35.30
2023-02-05T21:23:51.932Z,35.30
2023-02-05T21:27:15.968Z,35.30
2023-02-05T21:30:46.002Z,35.30
2023-02-05T21:34:16.026Z,35.30
2023-02-05T21:37:52.058Z,35.30
2023-02-05T21:41:15.783Z,35.30
2023-02-05T21:44:28.126Z,35.30
2023-02-05T21:47:40.142Z,35.30
2023-02-05T21:50:52.195Z,35.30
2023-02-05T21:54:10.230Z,35.30
2023-02-05T21:57:22.260Z,35.30
2023-02-05T22:00:34.565Z,35.30
2023-02-05T22:03:46.333Z,35.30
2023-02-05T22:06:52.357Z,35.30
2023-02-05T22:10:16.396Z,35.30
2023-02-05T22:13:22.426Z,35.30
2023-02-05T22:16:34.503Z,35.30
2023-02-05T22:23:04.517Z,35.30
2023-02-05T22:26:28.548Z,35.90
2023-02-05T22:29:40.578Z,35.30
2023-02-05T22:32:52.602Z,35.30
2023-02-05T22:36:04.643Z,35.30
2023-02-05T22:39:10.658Z,35.30
2023-02-05T22:42:22.377Z,35.30
2023-02-05T22:45:28.405Z,35.30
2023-02-05T22:48:40.741Z,35.30
2023-02-05T22:51:52.774Z,35.40
2023-02-05T22:55:10.800Z,35.40
2023-02-05T22:58:28.830Z,35.40
2023-02-05T23:05:46.894Z,35.30
2023-02-05T23:09:28.925Z,35.30
2023-02-05T23:16:53.023Z,35.30
2023-02-05T23:38:29.198Z,35.30
2023-02-05T23:45:59.264Z,35.30
2023-02-05T23:49:29.289Z,35.30
